Golts, Maryland
Current Conditions -  °F | °C
As of 6:58 AM on Monday 22 Dec 2014 (Local Time) from KDOV Reporting Station
Clear Clear  
Wind Chill: -6°   Ceiling: Unl
Heat Index: -3°   Visibility: 10mi
Dew Point: -3°   Wind: 6mph
Humidity: 99%   Direction: 360°N
Pressure: 30.28"   Gusts: NA
Location:  39.3314°N, 75.8397°W
Report Text: KDOV 221158Z AUTO 36005KT 10SM CLR M03/M03 A3028 RMK AO2 SLP257 T10261027 11025 21049 55005
Loading
Personal Weather Stations






























Interactive Weather Map New forecast layout! Learn more

10-Day Weather Forecast

Advertisements
Track Severe Weather on mobile